Latest Weather Observations for The Monument

IDQ60801

Issued at 11:32 pm EST Monday 25 May 2015 (issued every 30 minutes, with the page automatically refreshed every 10 minutes)

About weather observations | Map of weather stations | Latest weather observations for QLD | Other Formats
Station Details ID: 037034 Name: THE MONUMENT AIRPORT Lat: -21.81 Lon: 139.93 Height: 288.4 m
Data from the previous 72 hours. | See also: Recent months at The Monument
Date/Time
EST
Temp
°C
App
Temp
°C
Dew
Point
Rel
Hum
%
Delta-T
°C
Wind Press
QNH
hPa
Press
MSL
hPa
Rain
since 9 am
mm
Dir
 
Spd
km/h
Gust
km/h
Spd
kts
Gust
kts
25/11:30pm 20.4 18.3 9.6 50 5.8 E 11 13 6 7 1022.3 1021.4 0.0
25/11:00pm 21.5 18.6 9.7 47 6.4 E 15 19 8 10 1022.5 1021.6 0.0
25/10:30pm 22.1 19.3 9.9 46 6.7 E 15 20 8 11 1022.3 1021.4 0.0
25/10:00pm 21.3 19.2 9.9 48 6.2 ESE 11 15 6 8 1022.2 1021.3 0.0
25/09:30pm 20.9 19.1 9.5 48 6.2 ESE 9 11 5 6 1022.2 1021.3 0.0
25/09:00pm 21.0 19.5 9.3 47 6.3 E 7 9 4 5 1022.1 1021.2 0.0
25/08:30pm 21.3 19.8 9.2 46 6.5 E 7 9 4 5 1021.9 1021.0 0.0
25/08:00pm 21.5 19.8 8.4 43 7.0 ESE 7 9 4 5 1021.6 1020.7 0.0
25/07:30pm 23.1 22.5 9.1 41 7.6 ESE 2 7 1 4 1021.4 1020.5 0.0
25/07:00pm 23.7 23.1 8.9 39 8.0 ENE 2 7 1 4 1020.9 1020.0 0.0
25/06:30pm 24.9 23.4 8.4 35 8.9 ENE 6 9 3 5 1020.6 1019.7 0.0
25/06:00pm 26.8 25.2 8.7 32 10.0 E 7 9 4 5 1020.2 1019.4 0.0
25/05:30pm 28.1 26.9 9.4 31 10.5 ESE 6 11 3 6 1020.1 1019.3 0.0
25/05:00pm 29.1 28.7 9.8 30 10.9 WNW 2 7 1 4 1019.8 1019.0 0.0
25/04:30pm 29.4 27.5 10.5 31 10.9 NNE 11 13 6 7 1019.5 1018.6 0.0
25/04:00pm 29.6 27.8 10.7 31 10.9 NE 11 17 6 9 1019.2 1018.3 0.0
25/03:30pm 29.1 26.9 10.7 32 10.6 NE 13 19 7 10 1019.4 1018.5 0.0
25/03:00pm 28.9 25.7 10.1 31 10.7 NNE 17 26 9 14 1019.6 1018.8 0.0
25/02:30pm 28.9 26.1 10.1 31 10.7 NNE 15 24 8 13 1019.6 1018.8 0.0
25/02:00pm 29.0 26.0 10.6 32 10.6 NNE 17 26 9 14 1019.9 1019.1 0.0
25/01:30pm 28.2 25.4 13.3 40 8.9 NNE 20 32 11 17 1020.2 1019.4 0.0
25/01:00pm 28.1 25.4 13.6 41 8.7 NNE 20 30 11 16 1020.8 1019.9 0.0
25/12:30pm 26.8 23.9 13.9 45 7.8 NNE 22 33 12 18 1021.3 1020.4 0.0
25/12:00pm 26.5 23.7 14.3 47 7.3 NNE 22 35 12 19 1021.6 1020.7 0.0
25/11:30am 24.7 23.1 13.9 51 6.4 NE 15 22 8 12 1022.4 1021.5 0.0
25/11:00am 24.0 21.6 13.8 53 6.0 ENE 19 28 10 15 1022.7 1021.9 0.0
25/10:30am 22.1 20.0 13.5 58 5.0 NE 17 26 9 14 1023.0 1022.2 0.0
25/10:00am 21.7 19.4 13.1 58 5.0 NE 17 24 9 13 1023.3 1022.5 0.0
25/09:30am 20.8 20.0 12.8 60 4.6 ENE 9 15 5 8 1023.2 1022.4 0.0
25/09:00am 18.5 16.3 9.3 55 4.9 E 11 15 6 8 1022.9 1022.1 0.0
25/08:30am 16.9 14.7 7.8 55 4.6 ESE 9 13 5 7 1022.7 1021.9 0.0
25/08:00am 14.7 13.2 5.2 53 4.5 SE 2 6 1 3 1022.5 1021.6 0.0
25/07:30am 13.0 10.6 4.2 55 4.1 SSE 6 9 3 5 1022.4 1021.5 0.0
25/07:00am 13.0 10.8 5.4 60 3.6 ESE 6 7 3 4 1022.0 1021.1 0.0
25/06:30am 11.9 10.3 2.4 52 4.2 CALM 0 0 0 0 1021.5 1020.6 0.0
25/06:00am 11.6 9.2 2.1 52 4.1 NE 4 7 2 4 1021.1 1020.2 0.0
25/05:30am 11.3 8.5 2.3 54 3.9 ENE 6 7 3 4 1020.9 1020.0 0.0
25/05:00am 11.5 9.7 0.9 48 4.5 CALM 0 0 0 0 1021.1 1020.2 0.0
25/04:30am 11.2 9.2 -0.3 45 4.7 CALM 0 0 0 0 1021.2 1020.3 0.0
25/04:00am 12.3 10.0 0.4 44 5.0 S 2 7 1 4 1021.2 1020.3 0.0
25/03:30am 13.0 10.0 1.7 46 4.9 SSE 7 9 4 5 1021.3 1020.4 0.0
25/03:00am 12.9 10.9 0.0 41 5.4 CALM 0 0 0 0 1021.1 1020.2 0.0
25/02:30am 14.8 13.0 1.0 39 6.0 CALM 0 0 0 0 1021.5 1020.6 0.0
25/02:00am 14.9 13.0 0.7 38 6.2 CALM 0 0 0 0 1021.7 1020.8 0.0
25/01:30am 15.0 13.1 0.8 38 6.2 CALM 0 0 0 0 1021.8 1020.9 0.0
25/01:00am 15.2 12.2 2.1 41 5.9 S 7 9 4 5 1021.6 1020.7 0.0
25/12:30am 15.0 11.5 1.2 39 6.1 SSE 9 11 5 6 1021.6 1020.7 0.0
25/12:00am 15.2 11.4 -0.5 34 6.7 S 9 9 5 5 1021.8 1020.9 0.0
 
Date/Time
EST
Temp
°C
App
Temp
°C
Dew
Point
Rel
Hum
%
Delta-T
°C
Wind Press
QNH
hPa
Press
MSL
hPa
Rain
since 9 am
mm
Dir
 
Spd
km/h
Gust
km/h
Spd
kts
Gust
kts
24/11:30pm 15.6 12.1 1.3 38 6.3 SE 9 11 5 6 1021.7 1020.8 0.0
24/11:00pm 15.7 12.1 0.3 35 6.7 SE 9 11 5 6 1021.9 1021.0 0.0
24/10:30pm 16.6 13.0 0.3 33 7.1 S 9 9 5 5 1022.1 1021.2 0.0
24/10:00pm 18.0 14.5 1.5 33 7.5 SSE 9 11 5 6 1022.0 1021.1 0.0
24/09:30pm 18.2 14.2 0.8 31 7.8 ESE 11 13 6 7 1021.6 1020.7 0.0
24/09:00pm 18.8 14.9 0.9 30 8.1 ESE 11 13 6 7 1021.4 1020.5 0.0
24/08:30pm 19.6 15.7 1.1 29 8.5 ESE 11 13 6 7 1021.0 1020.1 0.0
24/08:00pm 20.5 16.3 1.4 28 8.8 ESE 13 15 7 8 1020.8 1019.9 0.0
24/07:30pm 20.4 16.4 0.3 26 9.1 SE 11 13 6 7 1020.6 1019.7 0.0
24/07:00pm 21.4 17.7 0.0 24 9.7 SE 9 11 5 6 1020.4 1019.5 0.0
24/06:30pm 22.3 18.3 0.2 23 10.1 ESE 11 11 6 6 1020.0 1019.2 0.0
24/06:00pm 23.5 19.9 0.6 22 10.7 ESE 9 11 5 6 1019.9 1019.1 0.0
24/05:30pm 24.4 20.4 0.7 21 11.2 ESE 11 15 6 8 1019.6 1018.8 0.0
24/05:00pm 25.1 20.8 1.3 21 11.4 SE 13 17 7 9 1019.4 1018.5 0.0
24/04:30pm 26.2 22.2 0.8 19 12.1 ESE 11 15 6 8 1019.3 1018.4 0.0
24/04:00pm 26.6 23.2 1.8 20 12.1 SE 9 17 5 9 1019.3 1018.4 0.0
24/03:30pm 26.4 22.3 2.3 21 11.9 ESE 13 22 7 12 1019.2 1018.3 0.0
24/03:00pm 26.2 21.1 2.8 22 11.6 SE 19 28 10 15 1019.2 1018.3 0.0
24/02:30pm 26.3 22.3 2.9 22 11.6 ENE 13 24 7 13 1019.3 1018.4 0.0
24/02:00pm 25.4 20.6 2.8 23 11.1 E 17 28 9 15 1019.6 1018.8 0.0
24/01:30pm 25.8 22.0 3.7 24 11.1 E 13 24 7 13 1019.8 1019.0 0.0
24/01:00pm 25.3 20.5 4.4 26 10.6 ENE 19 26 10 14 1020.5 1019.6 0.0
24/12:30pm 24.0 19.2 4.4 28 9.9 E 19 28 10 15 1020.7 1019.8 0.0
24/12:00pm 23.7 19.0 5.1 30 9.4 E 19 26 10 14 1021.1 1020.2 0.0
24/11:30am 22.1 16.7 4.6 32 8.7 E 22 30 12 16 1021.5 1020.6 0.0
24/11:00am 21.8 15.7 4.8 33 8.5 E 26 35 14 19 1021.9 1021.0 0.0
24/10:30am 20.0 15.1 4.1 35 7.7 E 19 30 10 16 1022.3 1021.4 0.0
24/10:00am 18.4 13.3 4.2 39 6.8 E 20 30 11 16 1022.5 1021.6 0.0
24/09:30am 17.5 13.0 4.1 41 6.4 E 17 26 9 14 1022.5 1021.6 0.0
24/09:00am 15.5 10.9 3.9 46 5.4 ESE 17 24 9 13 1022.3 1021.4 0.0
24/08:30am 13.7 9.8 3.2 49 4.8 E 13 17 7 9 1022.2 1021.3 0.0
24/08:00am 11.6 9.8 1.5 50 4.3 CALM 0 0 0 0 1022.2 1021.3 0.0
24/07:30am 9.2 7.5 1.6 59 3.2 CALM 0 6 0 3 1021.7 1020.8 0.0
24/07:00am 7.8 4.6 0.5 60 2.9 SE 7 7 4 4 1021.3 1020.4 0.0
24/06:30am 8.0 6.1 0.3 58 3.1 CALM 0 0 0 0 1020.8 1019.9 0.0
24/06:00am 8.3 5.1 -0.7 53 3.5 SE 6 7 3 4 1020.7 1019.8 0.0
24/05:30am 9.0 5.8 0.7 56 3.4 SE 7 9 4 5 1020.6 1019.7 0.0
24/05:00am 9.9 6.4 1.0 54 3.7 SE 9 9 5 5 1020.7 1019.8 0.0
24/04:30am 10.1 6.1 0.7 52 3.9 SE 11 13 6 7 1020.7 1019.8 0.0
24/04:00am 10.6 7.1 1.4 53 3.9 SSE 9 11 5 6 1021.0 1020.1 0.0
24/03:30am 10.0 6.8 -0.2 49 4.2 S 6 7 3 4 1021.1 1020.2 0.0
24/03:00am 9.8 7.7 -0.7 48 4.2 CALM 0 0 0 0 1021.2 1020.3 0.0
24/02:30am 10.4 6.7 -0.1 48 4.3 SE 9 11 5 6 1021.4 1020.5 0.0
24/02:00am 11.1 7.4 0.2 47 4.5 S 9 11 5 6 1021.5 1020.6 0.0
24/01:30am 11.8 8.2 0.6 46 4.7 S 9 9 5 5 1021.7 1020.8 0.0
24/01:00am 12.9 9.0 1.0 44 5.1 SSE 11 17 6 9 1021.9 1021.0 0.0
24/12:30am 12.9 9.0 1.0 44 5.1 SSE 11 13 6 7 1021.8 1020.9 0.0
24/12:00am 13.3 9.3 0.7 42 5.4 SSE 11 15 6 8 1022.1 1021.2 0.0
 
Date/Time
EST
Temp
°C
App
Temp
°C
Dew
Point
Rel
Hum
%
Delta-T
°C
Wind Press
QNH
hPa
Press
MSL
hPa
Rain
since 9 am
mm
Dir
 
Spd
km/h
Gust
km/h
Spd
kts
Gust
kts
23/11:30pm 13.7 9.3 0.4 40 5.7 SSE 13 15 7 8 1022.1 1021.2 0.0
23/11:00pm 13.9 9.9 0.5 40 5.7 SSE 11 15 6 8 1022.0 1021.1 0.0
23/10:30pm 14.4 10.0 0.3 38 6.1 SSE 13 15 7 8 1022.0 1021.1 0.0
23/10:00pm 15.3 10.9 0.3 36 6.5 SSE 13 17 7 9 1022.0 1021.1 0.0
23/09:30pm 15.3 11.0 0.7 37 6.4 SSE 13 15 7 8 1021.9 1021.0 0.0
23/09:00pm 15.5 11.0 -0.3 34 6.7 SSE 13 13 7 7 1021.9 1021.0 0.0
23/08:30pm 16.0 11.8 -0.7 32 7.1 SSE 11 13 6 7 1021.9 1021.0 0.0
23/08:00pm 16.8 12.7 -0.4 31 7.4 SSE 11 13 6 7 1021.7 1020.8 0.0
23/07:30pm 17.4 12.8 -0.8 29 7.9 SSE 13 15 7 8 1021.3 1020.4 0.0
23/07:00pm 18.7 13.8 -0.2 28 8.3 SSE 15 20 8 11 1021.2 1020.3 0.0
23/06:30pm 19.5 14.6 -0.5 26 8.8 SSE 15 20 8 11 1020.9 1020.0 0.0
23/06:00pm 20.4 14.7 -0.8 24 9.4 SSE 19 26 10 14 1020.5 1019.6 0.0
23/05:30pm 21.5 15.6 -1.1 22 10.0 SE 20 26 11 14 1020.1 1019.3 0.0
23/05:00pm 22.3 16.4 -2.4 19 10.7 SE 19 26 10 14 1020.1 1019.3 0.0
23/04:30pm 22.6 16.5 -2.2 19 10.9 SSE 20 28 11 15 1019.9 1019.1 0.0
23/04:00pm 22.4 16.3 -2.3 19 10.8 SE 20 32 11 17 1020.2 1019.4 0.0
23/03:30pm 22.3 16.4 -1.1 21 10.5 ESE 20 32 11 17 1020.4 1019.5 0.0
23/03:00pm 21.9 16.0 -0.8 22 10.2 ESE 20 32 11 17 1020.5 1019.6 0.0
23/02:30pm 21.4 15.2 -0.6 23 9.9 SE 22 30 12 16 1021.0 1020.1 0.0
23/02:00pm 21.4 15.7 0.6 25 9.5 ESE 20 33 11 18 1021.3 1020.4 0.0
23/01:30pm 20.7 14.7 1.1 27 9.0 ESE 22 32 12 17 1021.8 1020.9 0.0
23/01:00pm 19.9 14.4 1.8 30 8.4 ESE 20 33 11 18 1022.4 1021.5 0.0
23/12:30pm 19.0 12.9 2.8 34 7.6 ESE 24 30 13 16 1022.7 1021.9 0.0
23/12:00pm 19.1 13.1 3.3 35 7.5 ESE 24 41 13 22 1023.7 1022.9 0.0
23/11:30am 18.0 11.7 3.5 38 6.9 ESE 26 35 14 19 1024.1 1023.2 0.0
23/11:00am 17.2 10.5 3.8 41 6.3 ESE 28 35 15 19 1024.5 1023.6 0.0
23/10:30am 16.2 9.7 4.6 46 5.5 ESE 28 39 15 21 1025.1 1024.2 0.0
23/10:00am 15.6 9.5 4.6 48 5.2 ESE 26 35 14 19 1025.2 1024.3 0.0
23/09:30am 14.3 8.9 4.3 51 4.7 ESE 22 32 12 17 1025.2 1024.3 0.0
23/09:00am 12.6 7.5 3.0 52 4.3 SE 19 26 10 14 1025.2 1024.3 0.0
23/08:30am 11.1 7.0 2.2 54 3.9 SSE 13 19 7 10 1024.9 1024.0 0.0
23/08:00am 8.7 5.1 0.7 57 3.3 S 9 13 5 7 1024.8 1023.9 0.0
23/07:30am 7.2 3.1 0.0 60 2.9 SSW 11 11 6 6 1024.6 1023.7 0.0
23/07:00am 7.0 2.9 0.0 61 2.8 SSW 11 13 6 7 1024.2 1023.3 0.0
23/06:30am 7.5 3.9 0.5 61 2.8 S 9 11 5 6 1023.7 1022.9 0.0
23/06:00am 7.3 4.0 -0.2 59 3.0 SSE 7 9 4 5 1023.4 1022.6 0.0
23/05:30am 7.8 4.1 0.1 58 3.1 SSE 9 11 5 6 1023.1 1022.3 0.0
23/05:00am 8.5 5.2 0.2 56 3.3 S 7 9 4 5 1023.2 1022.4 0.0
23/04:30am 9.5 5.2 0.9 55 3.6 SSE 13 15 7 8 1023.1 1022.3 0.0
23/04:00am 10.0 5.3 0.9 53 3.8 SE 15 20 8 11 1023.1 1022.3 0.0
23/03:30am 9.4 5.0 0.6 54 3.6 SSE 13 15 7 8 1023.2 1022.4 0.0
23/03:00am 10.0 6.0 0.3 51 4.0 S 11 13 6 7 1023.6 1022.8 0.0
23/02:30am 10.8 6.5 0.8 50 4.2 SSE 13 17 7 9 1023.4 1022.6 0.0
23/02:00am 11.0 6.7 0.7 49 4.3 SSE 13 17 7 9 1023.5 1022.7 0.0
23/01:30am 11.6 6.8 0.4 46 4.7 SSE 15 19 8 10 1024.0 1023.1 0.0
23/01:00am 12.5 7.0 0.9 45 4.9 SSE 19 24 10 13 1024.2 1023.3 0.0
23/12:30am 12.6 7.1 0.4 43 5.2 SSE 19 28 10 15 1024.1 1023.2 0.0
23/12:00am 12.8 7.6 0.2 42 5.3 SSE 17 24 9 13 1024.2 1023.3 0.0

Other Formats:

Comma delimited format used in spreadsheet applications
http://www.bom.gov.au/fwo/IDQ60801/IDQ60801.94336.axf

JavaScript Object Notation format (JSON) in row-major order
http://www.bom.gov.au/fwo/IDQ60801/IDQ60801.94336.json